sensor_id;sensor_type;location;lat;lon;timestamp;pressure;altitude;pressure_sealevel;temperature;humidity
60715;BME280;46564;53.096;8.246;2023-03-04T00:00:46;102199.47;;;4.48;nan
60715;BME280;46564;53.096;8.246;2023-03-04T00:05:50;102202.06;;;4.48;nan
60715;BME280;46564;53.096;8.246;2023-03-04T00:10:52;102194.28;;;4.48;nan
60715;BME280;46564;53.096;8.246;2023-03-04T00:15:54;102189.31;;;4.51;nan
60715;BME280;46564;53.096;8.246;2023-03-04T00:20:58;102190.88;;;4.49;nan
60715;BME280;46564;53.096;8.246;2023-03-04T00:26:01;102187.59;;;4.51;nan
60715;BME280;46564;53.096;8.246;2023-03-04T00:31:03;102184.41;;;4.55;nan
60715;BME280;46564;53.096;8.246;2023-03-04T00:36:05;102185.09;;;4.53;nan
60715;BME280;46564;53.096;8.246;2023-03-04T00:41:07;102185.88;;;4.52;nan
60715;BME280;46564;53.096;8.246;2023-03-04T00:46:11;102176.34;;;4.51;nan
60715;BME280;46564;53.096;8.246;2023-03-04T00:51:13;102181.53;;;4.51;nan
60715;BME280;46564;53.096;8.246;2023-03-04T00:56:16;102173.25;;;4.56;nan
60715;BME280;46564;53.096;8.246;2023-03-04T01:01:18;102164.34;;;4.53;nan
60715;BME280;46564;53.096;8.246;2023-03-04T01:06:20;102159.53;;;4.59;nan
60715;BME280;46564;53.096;8.246;2023-03-04T01:11:22;102162.97;;;4.58;nan
60715;BME280;46564;53.096;8.246;2023-03-04T01:16:24;102156.16;;;4.60;nan
60715;BME280;46564;53.096;8.246;2023-03-04T01:21:26;102153.56;;;4.60;nan
60715;BME280;46564;53.096;8.246;2023-03-04T01:26:29;102144.91;;;4.59;nan
60715;BME280;46564;53.096;8.246;2023-03-04T01:31:31;102143.78;;;4.56;nan
60715;BME280;46564;53.096;8.246;2023-03-04T01:36:32;102141.09;;;4.54;nan
60715;BME280;46564;53.096;8.246;2023-03-04T01:41:37;102133.59;;;4.59;nan
60715;BME280;46564;53.096;8.246;2023-03-04T01:46:43;102126.63;;;4.58;nan
60715;BME280;46564;53.096;8.246;2023-03-04T01:51:52;102111.16;;;4.59;nan
60715;BME280;46564;53.096;8.246;2023-03-04T01:56:55;102099.28;;;4.63;nan
60715;BME280;46564;53.096;8.246;2023-03-04T02:02:04;102101.59;;;4.58;nan
60715;BME280;46564;53.096;8.246;2023-03-04T02:07:07;102099.69;;;4.56;nan
60715;BME280;46564;53.096;8.246;2023-03-04T02:12:12;102106.59;;;4.55;nan
60715;BME280;46564;53.096;8.246;2023-03-04T02:17:14;102095.19;;;4.53;nan
60715;BME280;46564;53.096;8.246;2023-03-04T02:22:16;102088.75;;;4.47;nan
60715;BME280;46564;53.096;8.246;2023-03-04T02:27:18;102086.13;;;4.47;nan
60715;BME280;46564;53.096;8.246;2023-03-04T02:32:23;102079.34;;;4.49;nan
60715;BME280;46564;53.096;8.246;2023-03-04T02:37:27;102076.38;;;4.42;nan
60715;BME280;46564;53.096;8.246;2023-03-04T02:42:30;102076.47;;;4.44;nan
60715;BME280;46564;53.096;8.246;2023-03-04T02:47:37;102072.19;;;4.45;nan
60715;BME280;46564;53.096;8.246;2023-03-04T02:52:42;102072.38;;;4.48;nan
60715;BME280;46564;53.096;8.246;2023-03-04T02:57:45;102063.50;;;4.44;nan
60715;BME280;46564;53.096;8.246;2023-03-04T03:02:48;102063.50;;;4.44;nan
60715;BME280;46564;53.096;8.246;2023-03-04T03:07:54;102059.03;;;4.41;nan
60715;BME280;46564;53.096;8.246;2023-03-04T03:12:59;102055.53;;;4.41;nan
60715;BME280;46564;53.096;8.246;2023-03-04T03:18:01;102044.88;;;4.36;nan
60715;BME280;46564;53.096;8.246;2023-03-04T03:23:03;102038.69;;;4.34;nan
60715;BME280;46564;53.096;8.246;2023-03-04T03:28:05;102039.69;;;4.36;nan
60715;BME280;46564;53.096;8.246;2023-03-04T03:33:11;102034.31;;;4.33;nan
60715;BME280;46564;53.096;8.246;2023-03-04T03:38:14;102033.41;;;4.33;nan
60715;BME280;46564;53.096;8.246;2023-03-04T03:43:15;102024.72;;;4.32;nan
60715;BME280;46564;53.096;8.246;2023-03-04T03:48:19;102020.44;;;4.33;nan
60715;BME280;46564;53.096;8.246;2023-03-04T03:53:21;102019.44;;;4.31;nan
60715;BME280;46564;53.096;8.246;2023-03-04T03:58:23;102017.56;;;4.28;nan
60715;BME280;46564;53.096;8.246;2023-03-04T04:03:27;102016.75;;;4.29;nan
60715;BME280;46564;53.096;8.246;2023-03-04T04:08:31;102014.06;;;4.28;nan
60715;BME280;46564;53.096;8.246;2023-03-04T04:13:35;102009.59;;;4.25;nan
60715;BME280;46564;53.096;8.246;2023-03-04T04:18:40;102007.72;;;4.22;nan
60715;BME280;46564;53.096;8.246;2023-03-04T04:23:45;102003.59;;;4.26;nan
60715;BME280;46564;53.096;8.246;2023-03-04T04:28:50;102004.84;;;4.18;nan
60715;BME280;46564;53.096;8.246;2023-03-04T04:33:55;101998.53;;;4.14;nan
60715;BME280;46564;53.096;8.246;2023-03-04T04:39:04;101994.28;;;4.15;nan
60715;BME280;46564;53.096;8.246;2023-03-04T04:44:09;101987.19;;;4.12;nan
60715;BME280;46564;53.096;8.246;2023-03-04T04:49:14;101987.97;;;4.11;nan
60715;BME280;46564;53.096;8.246;2023-03-04T04:54:15;101993.16;;;4.11;nan
60715;BME280;46564;53.096;8.246;2023-03-04T04:59:20;101977.41;;;4.08;nan
60715;BME280;46564;53.096;8.246;2023-03-04T05:04:22;101994.69;;;4.07;nan
60715;BME280;46564;53.096;8.246;2023-03-04T05:09:30;101998.88;;;4.05;nan
60715;BME280;46564;53.096;8.246;2023-03-04T05:14:37;101994.41;;;4.03;nan
60715;BME280;46564;53.096;8.246;2023-03-04T05:19:43;101991.53;;;3.98;nan
60715;BME280;46564;53.096;8.246;2023-03-04T05:24:53;101996.50;;;3.95;nan
60715;BME280;46564;53.096;8.246;2023-03-04T05:30:07;101997.78;;;3.88;nan
60715;BME280;46564;53.096;8.246;2023-03-04T05:35:40;102009.47;;;3.82;nan
60715;BME280;46564;53.096;8.246;2023-03-04T05:41:07;102002.50;;;3.81;nan
60715;BME280;46564;53.096;8.246;2023-03-04T05:46:29;101997.03;;;3.76;nan
60715;BME280;46564;53.096;8.246;2023-03-04T05:51:58;101978.97;;;3.78;nan
60715;BME280;46564;53.096;8.246;2023-03-04T05:57:25;101985.16;;;3.80;nan
60715;BME280;46564;53.096;8.246;2023-03-04T06:02:47;101978.88;;;3.76;nan
60715;BME280;46564;53.096;8.246;2023-03-04T06:22:00;101983.56;;;3.82;nan
60715;BME280;46564;53.096;8.246;2023-03-04T06:34:33;101977.47;;;3.81;nan
60715;BME280;46564;53.096;8.246;2023-03-04T06:40:27;101987.25;;;3.85;nan
60715;BME280;46564;53.096;8.246;2023-03-04T06:45:37;101998.09;;;3.93;nan
60715;BME280;46564;53.096;8.246;2023-03-04T06:50:39;101989.13;;;4.01;nan
60715;BME280;46564;53.096;8.246;2023-03-04T06:55:45;102004.97;;;4.06;nan
60715;BME280;46564;53.096;8.246;2023-03-04T07:00:47;102007.84;;;4.11;nan
60715;BME280;46564;53.096;8.246;2023-03-04T07:05:52;102003.22;;;4.20;nan
60715;BME280;46564;53.096;8.246;2023-03-04T07:11:29;102013.09;;;4.25;nan
60715;BME280;46564;53.096;8.246;2023-03-04T07:16:36;102011.94;;;4.35;nan
60715;BME280;46564;53.096;8.246;2023-03-04T07:22:08;102008.50;;;4.50;nan
60715;BME280;46564;53.096;8.246;2023-03-04T07:27:09;102004.31;;;4.52;nan
60715;BME280;46564;53.096;8.246;2023-03-04T07:32:12;102011.66;;;4.59;nan
60715;BME280;46564;53.096;8.246;2023-03-04T07:37:14;102018.84;;;4.63;nan
60715;BME280;46564;53.096;8.246;2023-03-04T07:42:16;102012.03;;;4.65;nan
60715;BME280;46564;53.096;8.246;2023-03-04T07:47:26;102028.16;;;4.59;nan
60715;BME280;46564;53.096;8.246;2023-03-04T07:52:29;102029.03;;;4.60;nan
60715;BME280;46564;53.096;8.246;2023-03-04T08:43:33;102047.59;;;4.81;nan
60715;BME280;46564;53.096;8.246;2023-03-04T08:55:49;102042.44;;;4.96;nan
60715;BME280;46564;53.096;8.246;2023-03-04T09:06:34;102042.66;;;5.29;nan
60715;BME280;46564;53.096;8.246;2023-03-04T09:12:03;102040.50;;;5.52;nan
60715;BME280;46564;53.096;8.246;2023-03-04T09:17:29;102053.50;;;5.37;nan
60715;BME280;46564;53.096;8.246;2023-03-04T09:22:59;102047.84;;;5.29;nan
60715;BME280;46564;53.096;8.246;2023-03-04T09:34:14;102057.34;;;5.13;nan
60715;BME280;46564;53.096;8.246;2023-03-04T09:39:59;102073.38;;;4.78;nan
60715;BME280;46564;53.096;8.246;2023-03-04T10:08:59;102072.56;;;5.37;nan
60715;BME280;46564;53.096;8.246;2023-03-04T10:33:45;102078.47;;;5.20;nan
60715;BME280;46564;53.096;8.246;2023-03-04T10:39:33;102084.84;;;5.55;nan
60715;BME280;46564;53.096;8.246;2023-03-04T10:45:02;102084.06;;;5.56;nan
60715;BME280;46564;53.096;8.246;2023-03-04T10:50:23;102072.38;;;5.79;nan
60715;BME280;46564;53.096;8.246;2023-03-04T10:56:38;102076.34;;;5.72;nan
60715;BME280;46564;53.096;8.246;2023-03-04T11:26:08;102056.88;;;4.63;nan
60715;BME280;46564;53.096;8.246;2023-03-04T11:32:07;102052.78;;;5.39;nan
60715;BME280;46564;53.096;8.246;2023-03-04T11:37:40;102039.97;;;5.42;nan
60715;BME280;46564;53.096;8.246;2023-03-04T11:48:44;102022.00;;;5.77;nan
60715;BME280;46564;53.096;8.246;2023-03-04T11:54:20;102017.09;;;6.13;nan
60715;BME280;46564;53.096;8.246;2023-03-04T12:53:36;101983.78;;;5.91;nan
60715;BME280;46564;53.096;8.246;2023-03-04T12:59:00;101979.88;;;5.82;nan
60715;BME280;46564;53.096;8.246;2023-03-04T13:16:27;101976.34;;;5.51;nan
60715;BME280;46564;53.096;8.246;2023-03-04T13:21:31;101981.03;;;5.26;nan
60715;BME280;46564;53.096;8.246;2023-03-04T13:26:37;101974.97;;;4.96;nan
60715;BME280;46564;53.096;8.246;2023-03-04T13:32:11;101981.00;;;4.82;nan
60715;BME280;46564;53.096;8.246;2023-03-04T13:37:27;101982.75;;;4.96;nan
60715;BME280;46564;53.096;8.246;2023-03-04T13:42:42;101979.63;;;5.17;nan
60715;BME280;46564;53.096;8.246;2023-03-04T13:47:45;101979.78;;;5.35;nan
60715;BME280;46564;53.096;8.246;2023-03-04T13:52:48;101979.97;;;5.23;nan
60715;BME280;46564;53.096;8.246;2023-03-04T14:30:52;101974.53;;;5.03;nan
60715;BME280;46564;53.096;8.246;2023-03-04T14:36:20;101977.81;;;4.86;nan
60715;BME280;46564;53.096;8.246;2023-03-04T14:42:05;101978.69;;;4.28;nan
60715;BME280;46564;53.096;8.246;2023-03-04T14:59:54;101951.63;;;4.53;nan
60715;BME280;46564;53.096;8.246;2023-03-04T15:05:23;101950.22;;;4.58;nan
60715;BME280;46564;53.096;8.246;2023-03-04T15:10:34;101954.50;;;4.57;nan
60715;BME280;46564;53.096;8.246;2023-03-04T15:16:10;101958.38;;;4.64;nan
60715;BME280;46564;53.096;8.246;2023-03-04T15:28:53;101957.88;;;4.41;nan
60715;BME280;46564;53.096;8.246;2023-03-04T15:33:55;101951.63;;;4.53;nan
60715;BME280;46564;53.096;8.246;2023-03-04T15:38:57;101956.22;;;4.57;nan
60715;BME280;46564;53.096;8.246;2023-03-04T15:44:27;101942.88;;;4.51;nan
60715;BME280;46564;53.096;8.246;2023-03-04T16:01:39;101927.75;;;4.43;nan
60715;BME280;46564;53.096;8.246;2023-03-04T16:06:44;101941.22;;;4.38;nan
60715;BME280;46564;53.096;8.246;2023-03-04T16:11:56;101950.53;;;4.34;nan
60715;BME280;46564;53.096;8.246;2023-03-04T16:17:02;101962.72;;;3.94;nan
60715;BME280;46564;53.096;8.246;2023-03-04T16:22:04;101948.75;;;3.36;nan
60715;BME280;46564;53.096;8.246;2023-03-04T16:27:18;101936.97;;;3.28;nan
60715;BME280;46564;53.096;8.246;2023-03-04T16:32:21;101929.59;;;3.21;nan
60715;BME280;46564;53.096;8.246;2023-03-04T16:37:25;101934.38;;;3.15;nan
60715;BME280;46564;53.096;8.246;2023-03-04T16:42:27;101930.59;;;3.10;nan
60715;BME280;46564;53.096;8.246;2023-03-04T16:47:28;101939.34;;;3.12;nan
60715;BME280;46564;53.096;8.246;2023-03-04T16:52:31;101929.41;;;3.18;nan
60715;BME280;46564;53.096;8.246;2023-03-04T16:57:33;101934.75;;;3.08;nan
60715;BME280;46564;53.096;8.246;2023-03-04T17:02:35;101922.75;;;3.08;nan
60715;BME280;46564;53.096;8.246;2023-03-04T17:07:36;101930.19;;;3.04;nan
60715;BME280;46564;53.096;8.246;2023-03-04T17:12:38;101925.03;;;3.04;nan
60715;BME280;46564;53.096;8.246;2023-03-04T17:17:41;101927.00;;;3.08;nan
60715;BME280;46564;53.096;8.246;2023-03-04T17:22:43;101927.41;;;3.00;nan
60715;BME280;46564;53.096;8.246;2023-03-04T17:27:45;101924.50;;;2.82;nan
60715;BME280;46564;53.096;8.246;2023-03-04T17:32:47;101931.44;;;2.83;nan
60715;BME280;46564;53.096;8.246;2023-03-04T17:37:49;101931.03;;;2.77;nan
60715;BME280;46564;53.096;8.246;2023-03-04T17:42:51;101940.13;;;2.84;nan
60715;BME280;46564;53.096;8.246;2023-03-04T17:47:56;101941.59;;;2.80;nan
60715;BME280;46564;53.096;8.246;2023-03-04T17:53:20;101937.88;;;2.63;nan
60715;BME280;46564;53.096;8.246;2023-03-04T17:58:32;101946.00;;;2.56;nan
60715;BME280;46564;53.096;8.246;2023-03-04T18:03:33;101947.41;;;2.51;nan
60715;BME280;46564;53.096;8.246;2023-03-04T18:08:35;101948.19;;;2.50;nan
60715;BME280;46564;53.096;8.246;2023-03-04T18:13:38;101947.97;;;2.47;nan
60715;BME280;46564;53.096;8.246;2023-03-04T18:18:41;101943.16;;;2.40;nan
60715;BME280;46564;53.096;8.246;2023-03-04T18:23:43;101941.41;;;2.39;nan
60715;BME280;46564;53.096;8.246;2023-03-04T18:28:46;101936.69;;;2.33;nan
60715;BME280;46564;53.096;8.246;2023-03-04T18:33:48;101935.78;;;2.33;nan
60715;BME280;46564;53.096;8.246;2023-03-04T18:38:50;101928.03;;;2.33;nan
60715;BME280;46564;53.096;8.246;2023-03-04T18:43:55;101923.19;;;2.37;nan
60715;BME280;46564;53.096;8.246;2023-03-04T18:49:04;101929.25;;;2.38;nan
60715;BME280;46564;53.096;8.246;2023-03-04T18:54:15;101916.00;;;2.33;nan
60715;BME280;46564;53.096;8.246;2023-03-04T18:59:51;101919.47;;;2.34;nan
60715;BME280;46564;53.096;8.246;2023-03-04T19:05:06;101929.41;;;2.27;nan
60715;BME280;46564;53.096;8.246;2023-03-04T19:10:18;101925.94;;;2.27;nan
60715;BME280;46564;53.096;8.246;2023-03-04T19:15:22;101926.03;;;2.28;nan
60715;BME280;46564;53.096;8.246;2023-03-04T19:20:40;101924.25;;;2.27;nan
60715;BME280;46564;53.096;8.246;2023-03-04T19:25:48;101930.19;;;2.26;nan
60715;BME280;46564;53.096;8.246;2023-03-04T19:30:53;101941.34;;;2.25;nan
60715;BME280;46564;53.096;8.246;2023-03-04T19:36:03;101947.28;;;2.24;nan
60715;BME280;46564;53.096;8.246;2023-03-04T19:41:15;101940.09;;;2.20;nan
60715;BME280;46564;53.096;8.246;2023-03-04T19:46:17;101949.56;;;2.20;nan
60715;BME280;46564;53.096;8.246;2023-03-04T19:51:25;101943.25;;;2.16;nan
60715;BME280;46564;53.096;8.246;2023-03-04T19:56:28;101941.69;;;2.18;nan
60715;BME280;46564;53.096;8.246;2023-03-04T20:01:35;101935.28;;;2.13;nan
60715;BME280;46564;53.096;8.246;2023-03-04T20:06:39;101921.38;;;2.11;nan
60715;BME280;46564;53.096;8.246;2023-03-04T20:11:43;101925.34;;;2.06;nan
60715;BME280;46564;53.096;8.246;2023-03-04T20:17:03;101936.81;;;1.98;nan
60715;BME280;46564;53.096;8.246;2023-03-04T20:22:05;101929.41;;;1.90;nan
60715;BME280;46564;53.096;8.246;2023-03-04T20:27:12;101925.94;;;1.90;nan
60715;BME280;46564;53.096;8.246;2023-03-04T20:32:15;101926.84;;;1.90;nan
60715;BME280;46564;53.096;8.246;2023-03-04T20:37:16;101930.44;;;1.92;nan
60715;BME280;46564;53.096;8.246;2023-03-04T20:42:18;101921.88;;;1.93;nan
60715;BME280;46564;53.096;8.246;2023-03-04T20:47:20;101923.47;;;1.91;nan
60715;BME280;46564;53.096;8.246;2023-03-04T20:52:22;101915.72;;;1.91;nan
60715;BME280;46564;53.096;8.246;2023-03-04T20:57:23;101922.91;;;1.96;nan
60715;BME280;46564;53.096;8.246;2023-03-04T21:02:25;101910.00;;;1.96;nan
60715;BME280;46564;53.096;8.246;2023-03-04T21:07:27;101919.50;;;1.97;nan
60715;BME280;46564;53.096;8.246;2023-03-04T21:12:29;101911.66;;;1.95;nan
60715;BME280;46564;53.096;8.246;2023-03-04T21:17:30;101897.53;;;1.90;nan
60715;BME280;46564;53.096;8.246;2023-03-04T21:22:32;101883.03;;;1.92;nan
60715;BME280;46564;53.096;8.246;2023-03-04T21:27:34;101882.13;;;1.91;nan
60715;BME280;46564;53.096;8.246;2023-03-04T21:32:39;101886.31;;;1.89;nan
60715;BME280;46564;53.096;8.246;2023-03-04T21:37:41;101875.97;;;1.89;nan
60715;BME280;46564;53.096;8.246;2023-03-04T21:42:43;101873.41;;;1.89;nan
60715;BME280;46564;53.096;8.246;2023-03-04T21:47:45;101862.03;;;1.87;nan
60715;BME280;46564;53.096;8.246;2023-03-04T21:52:47;101875.78;;;1.86;nan
60715;BME280;46564;53.096;8.246;2023-03-04T21:57:49;101863.84;;;1.88;nan
60715;BME280;46564;53.096;8.246;2023-03-04T22:02:50;101863.16;;;1.91;nan
60715;BME280;46564;53.096;8.246;2023-03-04T22:07:52;101859.00;;;1.93;nan
60715;BME280;46564;53.096;8.246;2023-03-04T22:12:54;101859.09;;;1.94;nan
60715;BME280;46564;53.096;8.246;2023-03-04T22:17:55;101857.28;;;1.93;nan
60715;BME280;46564;53.096;8.246;2023-03-04T22:22:57;101855.94;;;1.99;nan
60715;BME280;46564;53.096;8.246;2023-03-04T22:27:59;101861.13;;;1.99;nan
60715;BME280;46564;53.096;8.246;2023-03-04T22:33:00;101849.97;;;2.00;nan
60715;BME280;46564;53.096;8.246;2023-03-04T22:38:02;101845.63;;;1.99;nan
60715;BME280;46564;53.096;8.246;2023-03-04T22:43:04;101843.03;;;1.99;nan
60715;BME280;46564;53.096;8.246;2023-03-04T22:48:06;101842.00;;;1.97;nan
60715;BME280;46564;53.096;8.246;2023-03-04T22:53:08;101835.06;;;1.96;nan
60715;BME280;46564;53.096;8.246;2023-03-04T22:58:09;101829.91;;;1.96;nan
60715;BME280;46564;53.096;8.246;2023-03-04T23:03:11;101821.34;;;1.97;nan
60715;BME280;46564;53.096;8.246;2023-03-04T23:08:13;101818.56;;;1.93;nan
60715;BME280;46564;53.096;8.246;2023-03-04T23:13:15;101815.75;;;1.90;nan
60715;BME280;46564;53.096;8.246;2023-03-04T23:18:17;101812.19;;;1.88;nan
60715;BME280;46564;53.096;8.246;2023-03-04T23:23:19;101805.94;;;1.85;nan
60715;BME280;46564;53.096;8.246;2023-03-04T23:28:21;101796.84;;;1.78;nan
60715;BME280;46564;53.096;8.246;2023-03-04T23:33:22;101794.84;;;1.74;nan
60715;BME280;46564;53.096;8.246;2023-03-04T23:38:24;101796.44;;;1.72;nan
60715;BME280;46564;53.096;8.246;2023-03-04T23:43:26;101791.84;;;1.68;nan
60715;BME280;46564;53.096;8.246;2023-03-04T23:48:30;101797.09;;;1.69;nan
60715;BME280;46564;53.096;8.246;2023-03-04T23:53:32;101795.66;;;1.73;nan
60715;BME280;46564;53.096;8.246;2023-03-04T23:58:34;101788.47;;;1.69;nan
